Time;durP1;ratioP1;P1;durP2;ratioP2;P2;SDS_P1;SDS_P2;PMS_P1;PMS_P2;Temp;Humidity;BMP_temperature;BMP_pressure;BME280_temperature;BME280_humidity;BME280_pressure;Samples;Min_cycle;Max_cycle;Signal;HPM_P1;HPM_P2
2023/01/14 00:01:40;;;;;;;16.30;2.63;;;;;;;5.24;100.00;100060.88;4985982;28;20117;-74
2023/01/14 00:04:06;;;;;;;29.33;6.38;;;;;;;5.26;100.00;100053.63;4986462;28;20018;-75
2023/01/14 00:06:33;;;;;;;24.80;5.10;;;;;;;5.29;100.00;100069.22;4979936;28;20062;-75
2023/01/14 00:09:00;;;;;;;19.27;2.53;;;;;;;5.25;100.00;100067.88;4985074;28;20289;-74
2023/01/14 00:14:17;;;;;;;34.33;4.45;;;;;;;5.25;100.00;100079.28;4982491;28;20026;-77
2023/01/14 00:16:43;;;;;;;21.67;3.50;;;;;;;5.31;100.00;100072.56;4988358;28;20050;-74
2023/01/14 00:19:09;;;;;;;32.55;3.72;;;;;;;5.35;100.00;100078.41;4989951;28;20186;-74
2023/01/14 00:21:35;;;;;;;23.60;4.18;;;;;;;5.33;100.00;100089.13;4988243;28;20037;-74
2023/01/14 00:24:01;;;;;;;25.63;4.68;;;;;;;5.32;100.00;100095.41;4984569;28;20034;-74
2023/01/14 00:26:26;;;;;;;30.67;4.88;;;;;;;5.39;100.00;100088.56;4989412;28;20042;-76
2023/01/14 00:28:52;;;;;;;26.95;5.25;;;;;;;5.47;100.00;100103.72;4988249;28;20111;-77
2023/01/14 00:31:20;;;;;;;28.77;4.38;;;;;;;5.49;100.00;100107.88;4971875;28;20038;-75
2023/01/14 00:33:46;;;;;;;32.22;4.70;;;;;;;5.57;100.00;100108.97;4988484;28;20074;-74
2023/01/14 00:36:14;;;;;;;21.60;4.18;;;;;;;5.53;100.00;100118.22;4988376;28;20058;-74
2023/01/14 00:38:40;;;;;;;40.10;6.30;;;;;;;5.50;100.00;100125.47;4977968;28;20136;-75
2023/01/14 00:41:10;;;;;;;;;;;;;;;5.47;100.00;100130.19;4989111;28;20022;-76
2023/01/14 00:43:41;;;;;;;24.73;5.22;;;;;;;5.49;100.00;100133.53;4988121;28;19925;-78
2023/01/14 00:46:10;;;;;;;25.80;5.78;;;;;;;5.48;100.00;100138.00;4971633;28;20849;-73
2023/01/14 00:48:36;;;;;;;27.52;4.63;;;;;;;5.47;100.00;100131.03;4987822;28;20038;-74
2023/01/14 00:51:02;;;;;;;;;;;;;;;5.50;100.00;100133.41;4987715;28;20052;-78
2023/01/14 00:53:29;;;;;;;30.20;4.05;;;;;;;5.46;100.00;100132.00;4971736;28;19917;-74
2023/01/14 00:55:56;;;;;;;30.73;4.18;;;;;;;5.49;100.00;100134.38;4987444;28;20386;-74
2023/01/14 00:58:21;;;;;;;;;;;;;;;5.46;100.00;100118.78;4988191;28;20034;-74
2023/01/14 01:00:47;;;;;;;20.30;4.07;;;;;;;5.49;100.00;100131.72;4988376;28;19918;-76
2023/01/14 01:03:13;;;;;;;31.75;5.30;;;;;;;5.48;100.00;100119.47;4967917;28;20029;-74
2023/01/14 01:05:39;;;;;;;;;;;;;;;5.50;100.00;100114.00;4985265;28;20120;-74
2023/01/14 01:08:05;;;;;;;19.13;2.88;;;;;;;5.44;100.00;100107.50;4988511;28;20338;-76
2023/01/14 01:10:33;;;;;;;16.75;3.30;;;;;;;5.40;100.00;100107.94;4970871;28;20030;-78
2023/01/14 01:12:59;;;;;;;13.02;2.80;;;;;;;5.36;100.00;100112.69;4970943;28;20033;-75
2023/01/14 01:15:24;;;;;;;14.97;2.17;;;;;;;5.38;100.00;100121.28;4987136;28;20034;-75
2023/01/14 01:17:49;;;;;;;8.18;1.80;;;;;;;5.44;100.00;100119.91;4988225;28;20034;-74
2023/01/14 01:20:15;;;;;;;9.03;3.03;;;;;;;5.48;100.00;100138.00;4987222;28;20031;-74
2023/01/14 01:22:40;;;;;;;18.40;2.80;;;;;;;5.44;100.00;100131.31;4987860;28;20068;-74
2023/01/14 01:25:06;;;;;;;22.53;5.07;;;;;;;5.43;100.00;100142.91;4986816;28;20044;-74
2023/01/14 01:27:32;;;;;;;21.35;3.20;;;;;;;5.42;100.00;100151.81;4987115;28;20034;-75
2023/01/14 01:29:57;;;;;;;20.43;2.90;;;;;;;5.40;100.00;100156.41;4986903;28;20053;-74
2023/01/14 01:32:24;;;;;;;23.27;3.63;;;;;;;5.39;100.00;100154.75;4978808;28;20031;-77
2023/01/14 01:34:49;;;;;;;27.23;3.60;;;;;;;5.41;100.00;100163.38;4969709;28;20043;-74
2023/01/14 01:37:16;;;;;;;21.33;4.03;;;;;;;5.40;100.00;100167.00;4986801;28;20034;-75
2023/01/14 01:39:41;;;;;;;11.77;2.50;;;;;;;5.39;100.00;100168.00;4986635;28;20438;-77
2023/01/14 01:42:13;;;;;;;18.50;3.70;;;;;;;5.35;100.00;100166.59;4981042;28;20265;-77
2023/01/14 01:44:41;;;;;;;25.90;3.80;;;;;;;5.34;100.00;100164.94;4986674;28;20030;-74
2023/01/14 01:47:07;;;;;;;15.85;3.05;;;;;;;5.32;100.00;100169.53;4986132;28;20511;-76
2023/01/14 01:49:36;;;;;;;25.00;4.43;;;;;;;5.31;100.00;100177.63;4970332;28;20039;-75
2023/01/14 01:52:15;;;;;;;25.50;3.45;;;;;;;5.31;100.00;100174.97;4987621;28;20101;-74
2023/01/14 01:54:51;;;;;;;12.73;2.85;;;;;;;5.24;100.00;100180.00;4987686;28;20129;-74
2023/01/14 01:57:18;;;;;;;30.73;4.63;;;;;;;5.24;100.00;100195.88;4987490;28;20034;-76
2023/01/14 01:59:52;;;;;;;21.05;4.13;;;;;;;5.21;100.00;100185.56;4987504;28;20053;-74
2023/01/14 02:02:19;;;;;;;19.88;3.17;;;;;;;5.21;100.00;100190.88;4986017;28;20034;-75
2023/01/14 02:04:44;;;;;;;15.30;2.58;;;;;;;5.20;100.00;100197.16;4987371;28;20084;-74
2023/01/14 02:07:22;;;;;;;30.70;6.33;;;;;;;5.32;100.00;100200.47;4986045;28;20034;-75
2023/01/14 02:09:54;;;;;;;16.08;4.05;;;;;;;5.33;100.00;100210.91;4985984;28;20458;-76
2023/01/14 02:12:48;;;;;;;18.90;2.78;;;;;;;5.33;100.00;100216.19;4980917;28;20057;-74
2023/01/14 02:15:33;;;;;;;27.30;5.22;;;;;;;5.35;100.00;100211.59;4985973;28;20041;-76
2023/01/14 02:18:29;;;;;;;19.98;4.07;;;;;;;5.35;100.00;100216.06;4986022;28;20030;-74
2023/01/14 02:21:17;;;;;;;23.75;4.05;;;;;;;5.39;100.00;100217.47;4985631;28;20041;-74
2023/01/14 02:24:07;;;;;;;14.88;3.20;;;;;;;5.34;100.00;100215.22;4986984;28;20026;-75
2023/01/14 02:26:54;;;;;;;13.27;2.88;;;;;;;5.41;100.00;100218.97;4986662;28;20080;-78
2023/01/14 02:29:58;;;;;;;14.43;2.67;;;;;;;5.45;100.00;100217.69;4985914;28;20062;-74
2023/01/14 02:32:49;;;;;;;22.48;3.97;;;;;;;5.41;100.00;100213.69;4982099;28;20903;-78
2023/01/14 02:35:22;;;;;;;23.65;3.67;;;;;;;5.44;100.00;100210.75;4979514;28;20314;-74
2023/01/14 02:38:22;;;;;;;27.40;4.20;;;;;;;5.51;100.00;100224.25;4985728;28;20049;-75
2023/01/14 02:41:01;;;;;;;25.88;3.13;;;;;;;5.45;100.00;100228.28;4986188;28;20034;-75
2023/01/14 02:44:10;;;;;;;30.98;4.93;;;;;;;5.42;100.00;100233.88;4985615;28;20085;-78
2023/01/14 02:47:05;;;;;;;23.77;4.18;;;;;;;5.41;100.00;100245.47;4983250;28;20528;-76
2023/01/14 02:49:39;;;;;;;20.33;4.88;;;;;;;5.39;100.00;100251.88;4985512;28;20113;-76
2023/01/14 02:52:06;;;;;;;25.30;4.80;;;;;;;5.38;100.00;100258.97;4963437;28;20042;-74
2023/01/14 02:54:32;;;;;;;18.58;3.50;;;;;;;5.38;100.00;100264.25;4985503;28;20052;-77
2023/01/14 02:57:12;;;;;;;37.33;5.45;;;;;;;5.32;100.00;100270.13;4985064;28;20395;-75
2023/01/14 02:59:47;;;;;;;25.40;4.35;;;;;;;5.26;100.00;100275.97;4985430;28;20489;-74
2023/01/14 03:02:43;;;;;;;27.45;3.72;;;;;;;5.28;100.00;100274.03;4985260;28;20080;-76
2023/01/14 03:05:14;;;;;;;33.72;5.28;;;;;;;5.28;100.00;100274.84;4985110;28;20041;-74
2023/01/14 03:07:47;;;;;;;28.88;5.47;;;;;;;5.29;100.00;100281.84;4985304;28;20043;-74
2023/01/14 03:10:24;;;;;;;23.98;3.42;;;;;;;5.29;100.00;100280.97;4986620;28;20965;-75
2023/01/14 03:13:17;;;;;;;20.90;3.17;;;;;;;5.31;100.00;100280.84;4985224;28;20161;-74
2023/01/14 03:15:52;;;;;;;23.15;3.78;;;;;;;5.26;100.00;100268.84;4940149;28;20062;-76
2023/01/14 03:18:44;;;;;;;20.13;3.55;;;;;;;5.27;100.00;100273.19;4986461;28;20054;-75
2023/01/14 03:21:17;;;;;;;21.90;3.47;;;;;;;5.28;100.00;100266.09;4986228;28;20713;-74
2023/01/14 03:23:56;;;;;;;23.40;3.95;;;;;;;5.34;100.00;100268.19;4968742;28;20042;-75
2023/01/14 03:26:25;;;;;;;17.42;3.80;;;;;;;5.28;100.00;100272.19;4980581;28;20030;-78
2023/01/14 03:28:53;;;;;;;19.67;3.60;;;;;;;5.25;100.00;100261.06;4985222;28;20133;-74
2023/01/14 03:31:29;;;;;;;25.08;3.97;;;;;;;5.24;100.00;100269.97;4979814;28;20031;-74
2023/01/14 03:34:01;;;;;;;20.20;3.92;;;;;;;5.29;100.00;100268.59;4985061;28;20060;-74
2023/01/14 03:36:32;;;;;;;19.95;3.20;;;;;;;5.29;100.00;100275.69;4986100;28;20121;-78
2023/01/14 03:39:02;;;;;;;21.02;3.00;;;;;;;5.24;100.00;100267.31;4985073;28;20031;-74
2023/01/14 03:44:25;;;;;;;21.73;5.10;;;;;;;5.31;100.00;100281.66;4980582;28;20031;-77
2023/01/14 03:46:50;;;;;;;15.35;3.67;;;;;;;5.30;100.00;100274.72;4970827;28;20514;-76
2023/01/14 03:49:16;;;;;;;15.50;3.50;;;;;;;5.25;100.00;100269.84;4990323;28;20018;-74
2023/01/14 03:51:59;;;;;;;21.55;4.22;;;;;;;5.23;100.00;100270.97;4989710;28;20529;-76
2023/01/14 03:54:31;;;;;;;19.52;3.45;;;;;;;5.32;100.00;100277.25;4988729;28;20113;-74
2023/01/14 03:57:15;;;;;;;14.15;2.97;;;;;;;5.39;100.00;100279.19;4988107;28;20578;-78
2023/01/14 04:00:00;;;;;;;31.58;6.05;;;;;;;5.34;100.00;100277.91;4988498;28;20080;-74
2023/01/14 04:02:27;;;;;;;18.67;3.40;;;;;;;5.29;100.00;100273.88;4988384;28;20486;-74
2023/01/14 04:04:54;;;;;;;16.48;3.65;;;;;;;5.26;100.00;100268.03;4988221;28;20042;-75
2023/01/14 04:07:20;;;;;;;13.90;2.45;;;;;;;5.29;100.00;100276.53;4989670;28;20026;-74
2023/01/14 04:09:46;;;;;;;15.43;2.80;;;;;;;5.31;100.00;100268.44;4971918;28;20031;-74
2023/01/14 04:12:11;;;;;;;14.50;2.50;;;;;;;5.33;100.00;100282.38;4989190;28;20432;-76
2023/01/14 04:17:21;;;;;;;14.15;3.28;;;;;;;5.38;100.00;100264.25;4988299;28;20398;-74
2023/01/14 04:19:46;;;;;;;;;;;;;;;5.35;100.00;100263.72;4989834;28;20048;-77
2023/01/14 04:24:49;;;;;;;21.02;3.80;;;;;;;5.36;100.00;100254.78;4995253;28;20084;-75
2023/01/14 04:27:14;;;;;;;13.73;2.47;;;;;;;5.34;100.00;100254.94;4974987;28;20053;-75
2023/01/14 04:29:39;;;;;;;14.97;3.10;;;;;;;5.35;100.00;100245.19;4975256;28;20041;-76
2023/01/14 04:32:05;;;;;;;15.67;3.30;;;;;;;5.32;100.00;100251.59;4974913;28;20471;-75
2023/01/14 04:34:30;;;;;;;15.97;3.23;;;;;;;5.33;100.00;100260.38;4990628;28;20092;-75
2023/01/14 04:36:55;;;;;;;16.63;2.70;;;;;;;5.28;100.00;100258.97;4971669;28;20046;-75
2023/01/14 04:39:21;;;;;;;19.10;3.50;;;;;;;5.27;100.00;100256.47;4971826;28;20293;-75
2023/01/14 04:44:31;;;;;;;16.58;2.92;;;;;;;5.33;100.00;100274.44;4988929;28;20114;-75
2023/01/14 04:46:56;;;;;;;19.25;2.97;;;;;;;5.34;100.00;100281.41;4988624;28;20132;-76
2023/01/14 04:49:22;;;;;;;16.25;2.53;;;;;;;5.38;100.00;100287.25;4971575;28;20052;-76
2023/01/14 04:51:47;;;;;;;11.40;3.77;;;;;;;5.38;100.00;100280.13;4987373;28;20125;-74
2023/01/14 04:54:12;;;;;;;13.80;3.67;;;;;;;5.39;100.00;100281.81;4971425;28;20038;-75
2023/01/14 04:56:38;;;;;;;11.93;3.97;;;;;;;5.36;100.00;100275.97;4970782;28;20522;-75
2023/01/14 04:59:03;;;;;;;11.60;3.87;;;;;;;5.31;100.00;100284.31;4988892;28;20089;-74
2023/01/14 05:01:30;;;;;;;17.17;2.85;;;;;;;5.34;100.00;100283.19;4970975;28;20030;-75
2023/01/14 05:03:58;;;;;;;9.63;2.25;;;;;;;5.33;100.00;100281.53;4988477;28;20030;-75
2023/01/14 05:06:25;;;;;;;12.65;2.88;;;;;;;5.34;100.00;100284.06;4971141;28;20038;-75
2023/01/14 05:08:50;;;;;;;12.38;2.70;;;;;;;5.31;100.00;100289.63;4988607;28;20061;-75
2023/01/14 05:11:16;;;;;;;8.03;2.17;;;;;;;5.36;100.00;100284.75;4971146;28;20077;-74
2023/01/14 05:13:41;;;;;;;14.93;2.50;;;;;;;5.32;100.00;100280.72;4988487;28;20077;-76
2023/01/14 05:16:07;;;;;;;16.30;2.90;;;;;;;5.33;100.00;100285.03;4988324;28;20042;-75
2023/01/14 05:18:32;;;;;;;13.32;3.30;;;;;;;5.26;100.00;100282.09;4988419;28;20061;-75
2023/01/14 05:20:57;;;;;;;20.17;3.67;;;;;;;5.30;100.00;100287.97;4970877;28;20070;-76
2023/01/14 05:23:23;;;;;;;17.93;4.07;;;;;;;5.28;100.00;100282.78;4989336;28;20273;-74
2023/01/14 05:25:50;;;;;;;14.67;3.03;;;;;;;5.32;100.00;100288.66;4988710;28;20038;-75
2023/01/14 05:28:17;;;;;;;18.73;3.90;;;;;;;5.29;100.00;100288.91;4987161;28;20038;-76
2023/01/14 05:30:42;;;;;;;10.50;2.50;;;;;;;5.31;100.00;100288.78;4954400;28;20468;-75
2023/01/14 05:33:08;;;;;;;11.03;2.60;;;;;;;5.30;100.00;100282.66;4970713;28;20026;-75
2023/01/14 05:35:34;;;;;;;12.40;2.60;;;;;;;5.24;100.00;100278.78;4954538;28;20026;-75
2023/01/14 05:37:59;;;;;;;11.07;3.38;;;;;;;5.27;100.00;100277.66;4986994;28;20042;-75
2023/01/14 05:40:25;;;;;;;6.80;2.55;;;;;;;5.24;100.00;100280.56;4987654;28;20030;-75
2023/01/14 05:45:49;;;;;;;9.15;3.08;;;;;;;5.13;100.00;100276.25;4987747;28;20105;-75
2023/01/14 05:48:17;;;;;;;9.95;2.60;;;;;;;5.19;100.00;100288.91;4987952;28;20085;-75
2023/01/14 05:50:42;;;;;;;10.57;3.10;;;;;;;5.08;100.00;100295.19;4954102;28;20061;-75
2023/01/14 05:53:08;;;;;;;7.88;3.00;;;;;;;5.05;100.00;100303.38;4987649;28;20487;-76
2023/01/14 05:55:35;;;;;;;9.10;3.13;;;;;;;5.02;100.00;100316.91;4987605;28;20399;-76
2023/01/14 05:58:03;;;;;;;13.77;3.30;;;;;;;5.03;100.00;100320.38;4970308;28;20042;-75
2023/01/14 06:08:44;;;;;;;13.60;2.90;;;;;;;4.93;100.00;100360.06;4987039;28;20034;-76
2023/01/14 06:11:09;;;;;;;24.03;4.13;;;;;;;4.92;100.00;100361.03;4953991;28;20055;-76
2023/01/14 06:13:35;;;;;;;27.73;5.00;;;;;;;4.88;100.00;100356.97;4985804;28;20114;-76
2023/01/14 06:16:02;;;;;;;16.47;3.30;;;;;;;4.90;100.00;100355.03;4969815;28;20030;-76
2023/01/14 06:18:37;;;;;;;12.05;2.60;;;;;;;4.94;100.00;100359.09;4953931;28;20058;-75
2023/01/14 06:21:03;;;;;;;14.38;3.28;;;;;;;4.88;100.00;100353.50;4969501;28;20049;-75
2023/01/14 06:23:29;;;;;;;16.00;3.35;;;;;;;4.92;100.00;100346.97;4969537;28;20029;-76
2023/01/14 06:25:54;;;;;;;21.00;4.10;;;;;;;4.86;100.00;100341.22;4969613;28;20767;-75
2023/01/14 06:28:20;;;;;;;14.35;3.50;;;;;;;4.89;100.00;100350.69;4987143;28;20041;-75
2023/01/14 06:30:45;;;;;;;19.53;4.17;;;;;;;4.87;100.00;100339.44;4968904;28;20041;-75
2023/01/14 06:33:11;;;;;;;18.20;4.40;;;;;;;4.89;100.00;100341.94;4969344;28;20046;-76
2023/01/14 06:35:42;;;;;;;8.02;2.85;;;;;;;4.91;100.00;100347.94;4968936;28;20286;-76
2023/01/14 06:38:09;;;;;;;18.50;4.00;;;;;;;4.96;100.00;100338.59;4980564;28;20153;-76
2023/01/14 06:40:36;;;;;;;16.50;3.13;;;;;;;4.99;100.00;100343.66;4968679;28;20029;-75
2023/01/14 06:43:02;;;;;;;16.52;4.38;;;;;;;4.93;100.00;100338.88;4968824;28;20038;-75
2023/01/14 06:45:27;;;;;;;15.13;3.57;;;;;;;4.96;100.00;100335.97;4969009;28;20471;-76
2023/01/14 06:47:53;;;;;;;11.40;3.43;;;;;;;4.94;100.00;100332.63;4969316;28;20418;-75
2023/01/14 06:50:18;;;;;;;11.20;2.83;;;;;;;4.96;100.00;100329.84;4969344;28;20026;-76
2023/01/14 06:52:44;;;;;;;11.68;2.33;;;;;;;4.99;100.00;100326.94;4952636;28;20057;-74
2023/01/14 06:55:10;;;;;;;14.75;3.40;;;;;;;4.97;100.00;100321.78;4953160;28;20030;-75
2023/01/14 06:57:35;;;;;;;21.50;3.45;;;;;;;4.97;100.00;100332.34;4969059;28;20105;-75
2023/01/14 07:00:01;;;;;;;23.70;5.10;;;;;;;4.97;100.00;100323.59;4969141;28;20104;-74
2023/01/14 07:02:26;;;;;;;31.10;5.28;;;;;;;5.02;100.00;100332.78;4968711;28;20113;-75
2023/01/14 07:04:52;;;;;;;12.40;4.63;;;;;;;5.02;100.00;100332.78;4968749;28;20038;-76
2023/01/14 07:07:18;;;;;;;14.07;4.40;;;;;;;5.03;100.00;100313.31;4969073;28;20678;-75
2023/01/14 07:09:43;;;;;;;;;;;;;;;5.06;100.00;100323.59;4986715;28;20039;-76
2023/01/14 07:12:09;;;;;;;20.05;4.18;;;;;;;4.99;100.00;100306.59;4968532;28;20064;-75
2023/01/14 07:14:34;;;;;;;17.50;3.53;;;;;;;5.02;100.00;100316.06;4985983;28;20464;-75
2023/01/14 07:17:03;;;;;;;13.17;3.93;;;;;;;5.04;100.00;100320.25;4986165;28;20506;-75
2023/01/14 07:19:28;;;;;;;25.85;5.10;;;;;;;5.04;100.00;100324.72;4968776;28;20069;-75
2023/01/14 07:21:54;;;;;;;19.07;5.23;;;;;;;5.12;100.00;100321.38;4956130;28;20046;-75
2023/01/14 07:24:19;;;;;;;18.53;3.70;;;;;;;5.12;100.00;100310.78;4990147;28;20824;-74
2023/01/14 07:26:44;;;;;;;16.30;3.30;;;;;;;5.11;100.00;100306.47;4989905;28;20038;-75
2023/01/14 07:29:10;;;;;;;14.53;3.33;;;;;;;5.17;100.00;100298.81;4990014;28;20454;-75
2023/01/14 07:31:35;;;;;;;12.53;3.23;;;;;;;5.13;100.00;100300.06;4989755;28;20298;-74
2023/01/14 07:34:01;;;;;;;20.47;5.20;;;;;;;5.13;100.00;100296.56;4989830;28;20343;-74
2023/01/14 07:36:26;;;;;;;13.27;4.00;;;;;;;5.15;100.00;100276.09;4972453;28;20034;-75
2023/01/14 07:38:51;;;;;;;15.30;4.47;;;;;;;5.17;100.00;100271.50;4989754;28;20484;-75
2023/01/14 07:41:18;;;;;;;21.60;4.60;;;;;;;5.13;100.00;100270.09;4972076;28;20492;-75
2023/01/14 07:43:44;;;;;;;20.15;3.88;;;;;;;5.14;100.00;100283.22;4972028;28;20056;-74
2023/01/14 07:46:09;;;;;;;20.58;3.35;;;;;;;5.19;100.00;100274.84;4956023;28;20026;-75
2023/01/14 07:48:35;;;;;;;15.80;4.65;;;;;;;5.14;100.00;100274.44;4958893;28;20045;-75
2023/01/14 07:51:05;;;;;;;21.47;5.03;;;;;;;5.24;100.00;100278.78;4972012;28;20022;-75
2023/01/14 07:53:32;;;;;;;22.00;3.80;;;;;;;5.26;100.00;100279.44;4955800;28;20860;-76
2023/01/14 07:56:02;;;;;;;18.40;4.95;;;;;;;5.25;100.00;100269.84;4971924;28;20108;-74
2023/01/14 07:58:27;;;;;;;21.40;4.97;;;;;;;5.24;100.00;100269.97;4972481;28;20038;-74
2023/01/14 08:00:55;;;;;;;16.50;3.80;;;;;;;5.29;100.00;100265.94;4989002;28;20029;-75
2023/01/14 08:03:22;;;;;;;27.80;5.65;;;;;;;5.30;100.00;100261.47;4952639;28;20840;-74
2023/01/14 08:05:48;;;;;;;20.77;5.28;;;;;;;5.24;100.00;100252.31;4988412;28;20652;-74
2023/01/14 08:08:13;;;;;;;22.45;5.28;;;;;;;5.27;100.00;100256.47;4972624;28;20042;-75
2023/01/14 08:10:39;;;;;;;21.92;4.43;;;;;;;5.32;100.00;100243.66;4961832;28;20041;-75
2023/01/14 08:13:04;;;;;;;18.30;4.80;;;;;;;5.26;100.00;100260.91;4989531;28;20426;-75
2023/01/14 08:15:30;;;;;;;20.53;4.67;;;;;;;5.29;100.00;100247.41;4972103;28;20105;-75
2023/01/14 08:17:56;;;;;;;20.67;5.45;;;;;;;5.32;100.00;100248.13;4972310;28;20670;-74
2023/01/14 08:20:25;;;;;;;21.17;4.13;;;;;;;5.34;100.00;100228.47;4988285;28;20042;-75
2023/01/14 08:22:55;;;;;;;22.52;3.88;;;;;;;5.37;100.00;100225.53;4971882;28;20031;-75
2023/01/14 08:25:21;;;;;;;31.40;4.82;;;;;;;5.36;100.00;100215.06;4989445;28;20038;-75
2023/01/14 08:27:46;;;;;;;22.63;3.63;;;;;;;5.35;100.00;100210.78;4971830;28;20080;-75
2023/01/14 08:30:12;;;;;;;19.30;4.17;;;;;;;5.37;100.00;100198.22;4989314;28;20030;-75
2023/01/14 08:32:37;;;;;;;21.00;3.63;;;;;;;5.40;100.00;100190.81;4970770;28;20030;-74
2023/01/14 08:35:03;;;;;;;18.67;3.60;;;;;;;5.53;100.00;100182.59;4989110;28;20034;-75
2023/01/14 08:37:28;;;;;;;26.73;4.57;;;;;;;5.65;100.00;100175.31;4955752;28;20026;-74
2023/01/14 08:39:53;;;;;;;15.27;3.37;;;;;;;5.72;100.00;100168.44;4971628;28;20446;-75
2023/01/14 08:42:19;;;;;;;18.57;3.50;;;;;;;5.55;100.00;100137.41;4968207;28;20101;-75
2023/01/14 08:44:44;;;;;;;27.63;5.83;;;;;;;5.43;100.00;100127.03;4969732;28;20042;-75
2023/01/14 08:47:09;;;;;;;20.30;3.63;;;;;;;5.51;100.00;100121.00;4971231;28;20038;-74
2023/01/14 08:49:35;;;;;;;16.10;3.97;;;;;;;5.46;100.00;100102.06;4988461;28;20130;-74
2023/01/14 08:52:00;;;;;;;22.27;4.00;;;;;;;5.54;100.00;100090.75;4955164;28;20284;-74
2023/01/14 08:54:26;;;;;;;19.07;4.50;;;;;;;5.49;100.00;100068.16;4971600;28;20041;-75
2023/01/14 08:56:54;;;;;;;15.52;3.40;;;;;;;5.67;100.00;100076.19;4988610;28;20065;-76
2023/01/14 08:59:19;;;;;;;19.92;3.75;;;;;;;5.61;100.00;100057.41;4971471;28;20546;-74
2023/01/14 09:01:45;;;;;;;21.47;3.57;;;;;;;5.40;100.00;100036.44;4971157;28;20039;-75
2023/01/14 09:04:10;;;;;;;20.47;3.37;;;;;;;5.58;100.00;100045.28;4971424;28;20022;-74
2023/01/14 09:17:04;;;;;;;28.00;5.83;;;;;;;5.55;100.00;100031.50;4988729;28;21141;-74
2023/01/14 09:17:37;;;;;;;13.52;3.55;;;;;;;5.37;100.00;100034.94;4988578;28;20124;-75
2023/01/14 09:20:04;;;;;;;18.00;3.20;;;;;;;5.54;100.00;100046.56;4987491;28;20070;-76
2023/01/14 09:22:30;;;;;;;26.58;5.80;;;;;;;5.52;100.00;100037.91;4968385;28;20298;-75
2023/01/14 09:24:56;;;;;;;26.25;5.47;;;;;;;5.41;100.00;100025.72;4970527;28;20057;-75
2023/01/14 09:27:22;;;;;;;25.33;5.35;;;;;;;5.37;100.00;100034.94;4970045;28;20129;-76
2023/01/14 09:29:48;;;;;;;23.48;6.45;;;;;;;5.37;100.00;100040.22;4970693;28;20022;-75
2023/01/14 09:32:15;;;;;;;11.60;4.00;;;;;;;5.33;100.00;100017.66;4970463;28;20034;-74
2023/01/14 09:34:47;;;;;;;27.52;6.07;;;;;;;5.33;100.00;100016.84;4954505;28;20117;-75
2023/01/14 09:37:13;;;;;;;17.92;5.28;;;;;;;5.23;100.00;100012.41;4964749;28;20129;-75
2023/01/14 09:39:39;;;;;;;;;;;;;;;5.22;100.00;100016.06;4970969;28;20121;-74
2023/01/14 09:42:26;;;;;;;21.27;4.45;;;;;;;5.28;100.00;100033.16;4970039;28;20036;-75
2023/01/14 09:44:58;;;;;;;18.85;5.13;;;;;;;5.15;100.00;100025.56;4953357;28;20092;-75
2023/01/14 09:47:24;;;;;;;21.15;5.60;;;;;;;5.13;100.00;100037.25;4954258;28;20061;-74
2023/01/14 09:49:49;;;;;;;26.00;7.03;;;;;;;5.18;100.00;100040.31;4970398;28;20022;-74
2023/01/14 09:52:36;;;;;;;27.17;7.60;;;;;;;5.21;100.00;100053.25;4970660;28;20117;-75
2023/01/14 09:55:20;;;;;;;21.75;6.60;;;;;;;5.19;100.00;100041.97;4987742;28;20026;-75
2023/01/14 09:57:55;;;;;;;22.63;6.43;;;;;;;5.10;100.00;100043.66;4970370;28;20341;-75
2023/01/14 10:00:27;;;;;;;15.10;5.88;;;;;;;5.17;100.00;100054.50;4987488;28;20038;-76
2023/01/14 10:03:15;;;;;;;20.92;6.05;;;;;;;5.15;100.00;100053.81;4970303;28;20041;-74
2023/01/14 10:05:47;;;;;;;31.30;8.30;;;;;;;5.20;100.00;100054.25;4969687;28;20046;-74
2023/01/14 10:08:14;;;;;;;23.77;6.88;;;;;;;5.26;100.00;100045.69;4987555;28;20491;-74
2023/01/14 10:10:42;;;;;;;19.67;5.85;;;;;;;5.14;100.00;100038.94;4987073;28;20185;-74
2023/01/14 10:13:17;;;;;;;35.40;7.25;;;;;;;5.20;100.00;100051.59;4969774;28;20030;-75
2023/01/14 10:15:49;;;;;;;26.02;6.38;;;;;;;5.22;100.00;100031.09;4980768;28;20706;-74
2023/01/14 10:18:26;;;;;;;32.15;7.47;;;;;;;5.32;100.00;100041.66;4956463;28;20932;-74
2023/01/14 10:21:00;;;;;;;19.20;6.18;;;;;;;5.23;100.00;100015.06;4969633;28;20050;-74
2023/01/14 10:23:28;;;;;;;22.38;8.38;;;;;;;5.26;100.00;100011.28;4995535;23;20171;-87
2023/01/14 10:25:56;;;;;;;28.40;7.18;;;;;;;5.22;100.00;100000.19;4975607;28;20069;-87
2023/01/14 10:28:25;;;;;;;21.00;6.70;;;;;;;5.17;100.00;99985.69;4992284;28;20125;-88
2023/01/14 10:30:51;;;;;;;24.33;6.97;;;;;;;5.29;100.00;99997.75;4990663;28;20559;-88
2023/01/14 10:33:18;;;;;;;16.67;6.38;;;;;;;5.23;100.00;99985.13;4974833;28;20034;-89
2023/01/14 10:35:47;;;;;;;24.75;6.90;;;;;;;5.20;100.00;99985.44;4989352;28;20412;-87
2023/01/14 10:38:20;;;;;;;20.98;7.45;;;;;;;5.25;100.00;99984.00;4974702;28;20022;-86
2023/01/14 10:40:46;;;;;;;27.67;8.35;;;;;;;5.25;100.00;99983.19;4974055;28;20526;-89
2023/01/14 10:43:21;;;;;;;30.00;8.55;;;;;;;5.26;100.00;99958.38;4975041;28;20033;-88
2023/01/14 10:45:46;;;;;;;32.40;9.15;;;;;;;5.17;100.00;99954.78;4990941;28;20050;-89
2023/01/14 10:48:17;;;;;;;27.42;7.32;;;;;;;5.19;100.00;99942.22;4976665;28;20030;-89
2023/01/14 10:50:43;;;;;;;22.17;7.50;;;;;;;5.20;100.00;99938.63;4979167;28;20038;-88
2023/01/14 10:53:21;;;;;;;35.08;8.25;;;;;;;5.15;100.00;99934.75;4987682;28;20045;-89
2023/01/14 10:55:58;;;;;;;33.10;8.40;;;;;;;5.16;100.00;99925.84;4992746;28;20048;-90
2023/01/14 10:58:34;;;;;;;37.25;8.45;;;;;;;5.18;100.00;99918.59;4994248;28;20093;-87
2023/01/14 11:01:06;;;;;;;31.00;8.13;;;;;;;5.19;100.00;99907.00;4995447;28;20124;-87
2023/01/14 11:03:39;;;;;;;24.48;6.72;;;;;;;5.08;100.00;99898.31;4990081;28;20133;-87
2023/01/14 11:06:11;;;;;;;27.45;6.85;;;;;;;5.08;100.00;99886.91;4973847;28;20041;-87
2023/01/14 11:08:57;;;;;;;35.55;7.90;;;;;;;5.29;100.00;99897.19;4990010;28;20042;-88
2023/01/14 11:11:25;;;;;;;24.63;6.60;;;;;;;5.10;100.00;99860.25;4984494;28;20622;-88
2023/01/14 11:13:53;;;;;;;27.25;7.40;;;;;;;5.06;100.00;99841.22;4973103;28;20037;-89
2023/01/14 11:16:24;;;;;;;21.73;5.70;;;;;;;5.24;100.00;99857.97;4973372;28;20045;-86
2023/01/14 11:18:53;;;;;;;30.83;8.52;;;;;;;5.21;100.00;99836.25;4989543;28;20046;-87
2023/01/14 11:21:21;;;;;;;24.85;6.88;;;;;;;5.08;100.00;99818.94;4973471;28;20030;-86
2023/01/14 11:23:58;;;;;;;29.50;6.80;;;;;;;5.23;100.00;99815.75;4973254;28;20042;-90
2023/01/14 11:26:28;;;;;;;32.72;7.18;;;;;;;5.19;100.00;99795.88;4969812;28;20121;-88
2023/01/14 11:29:02;;;;;;;28.25;6.85;;;;;;;5.17;100.00;99781.94;4989317;28;20038;-86
2023/01/14 11:31:35;;;;;;;34.88;7.05;;;;;;;5.29;100.00;99772.78;4973180;28;20054;-88
2023/01/14 11:34:01;;;;;;;30.25;7.55;;;;;;;5.33;100.00;99774.16;4973328;28;20085;-88
2023/01/14 11:36:29;;;;;;;38.42;10.02;;;;;;;5.31;100.00;99749.66;4972959;28;20022;-89
2023/01/14 11:38:59;;;;;;;31.45;6.57;;;;;;;5.24;100.00;99728.28;4984871;28;20045;-93
2023/01/14 11:41:45;;;;;;;28.80;8.55;;;;;;;5.34;100.00;99720.25;4978490;28;20066;-88
2023/01/14 11:44:10;;;;;;;;;;;;;;;5.36;100.00;99717.44;4966987;28;20515;-88
2023/01/14 11:46:41;;;;;;;30.95;7.70;;;;;;;5.26;100.00;99704.28;4971093;28;19953;-87
2023/01/14 11:49:18;;;;;;;33.03;8.75;;;;;;;5.40;100.00;99716.16;4976361;28;20037;-88
2023/01/14 11:51:58;;;;;;;30.02;7.75;;;;;;;5.39;100.00;99703.91;4989740;28;20150;-88
2023/01/14 11:54:33;;;;;;;27.58;6.55;;;;;;;5.35;100.00;99674.25;4989477;28;20441;-88
2023/01/14 11:56:59;;;;;;;35.42;8.90;;;;;;;5.36;100.00;99667.13;4973304;28;20049;-88
2023/01/14 11:59:33;;;;;;;31.67;6.60;;;;;;;5.40;100.00;99673.78;4989523;28;20077;-88
2023/01/14 12:02:04;;;;;;;20.85;6.90;;;;;;;5.31;100.00;99656.19;4973325;28;20085;-89
2023/01/14 12:04:53;;;;;;;47.10;8.98;;;;;;;5.33;100.00;99649.75;4973344;28;20038;-89
2023/01/14 12:07:43;;;;;;;25.40;6.85;;;;;;;5.25;100.00;99633.84;4929565;28;20561;-88